createdAt,value
2023-03-30T00:01:03.697Z,8.46
2023-03-30T00:03:30.699Z,8.52
2023-03-30T00:06:05.232Z,8.41
2023-03-30T00:08:33.487Z,8.55
2023-03-30T00:11:19.466Z,8.56
2023-03-30T00:13:46.276Z,8.41
2023-03-30T00:16:14.083Z,8.38
2023-03-30T00:18:41.324Z,8.37
2023-03-30T00:21:10.138Z,8.29
2023-03-30T00:23:38.107Z,8.37
2023-03-30T00:26:05.221Z,8.36
2023-03-30T00:28:32.382Z,8.36
2023-03-30T00:30:59.345Z,8.38
2023-03-30T00:33:41.341Z,8.44
2023-03-30T00:36:11.322Z,8.45
2023-03-30T00:38:38.067Z,8.50
2023-03-30T00:41:05.675Z,8.46
2023-03-30T00:43:33.610Z,8.45
2023-03-30T00:46:00.527Z,8.39
2023-03-30T00:48:36.298Z,8.37
2023-03-30T00:51:09.806Z,8.29
2023-03-30T00:53:36.735Z,8.26
2023-03-30T00:56:07.595Z,8.26
2023-03-30T00:58:37.181Z,8.29
2023-03-30T01:01:07.714Z,8.32
2023-03-30T01:03:39.458Z,8.23
2023-03-30T01:06:07.827Z,8.26
2023-03-30T01:08:35.084Z,8.30
2023-03-30T01:11:04.108Z,8.20
2023-03-30T01:13:35.870Z,8.24
2023-03-30T01:16:28.888Z,8.21
2023-03-30T01:19:23.768Z,8.23
2023-03-30T01:22:15.371Z,8.22
2023-03-30T01:24:53.379Z,8.24
2023-03-30T01:27:23.354Z,8.16
2023-03-30T01:30:28.822Z,8.20
2023-03-30T01:33:17.281Z,8.22
2023-03-30T01:36:21.580Z,8.28
2023-03-30T01:39:22.254Z,8.19
2023-03-30T01:42:11.043Z,8.14
2023-03-30T01:44:53.880Z,8.19
2023-03-30T01:47:35.873Z,8.23
2023-03-30T01:50:12.872Z,8.22
2023-03-30T01:52:53.127Z,8.17
2023-03-30T01:55:25.361Z,8.15
2023-03-30T01:57:58.410Z,8.19
2023-03-30T02:00:27.769Z,8.18
2023-03-30T02:02:59.267Z,8.19
2023-03-30T02:05:27.992Z,8.26
2023-03-30T02:07:59.349Z,8.22
2023-03-30T02:10:30.557Z,8.22
2023-03-30T02:12:59.477Z,8.26
2023-03-30T02:15:33.215Z,8.27
2023-03-30T02:18:00.009Z,8.30
2023-03-30T02:20:28.865Z,8.21
2023-03-30T02:22:57.166Z,8.23
2023-03-30T02:25:24.676Z,8.28
2023-03-30T02:27:51.666Z,8.26
2023-03-30T02:30:18.745Z,8.27
2023-03-30T02:32:52.013Z,8.29
2023-03-30T02:35:46.342Z,8.32
2023-03-30T02:38:19.040Z,8.19
2023-03-30T02:41:13.515Z,8.30
2023-03-30T02:43:59.029Z,8.36
2023-03-30T02:46:35.279Z,8.24
2023-03-30T02:49:12.521Z,8.22
2023-03-30T02:51:53.938Z,8.27
2023-03-30T02:54:49.007Z,8.24
2023-03-30T02:57:32.056Z,8.31
2023-03-30T03:00:01.707Z,8.37
2023-03-30T03:02:34.119Z,8.34
2023-03-30T03:05:04.230Z,8.35
2023-03-30T03:07:34.026Z,8.43
2023-03-30T03:10:01.128Z,8.44
2023-03-30T03:12:28.849Z,8.38
2023-03-30T03:14:55.611Z,8.41
2023-03-30T03:17:22.658Z,8.49
2023-03-30T03:19:49.928Z,8.48
2023-03-30T03:22:17.240Z,8.49
2023-03-30T03:24:44.844Z,8.52
2023-03-30T03:27:11.801Z,8.55
2023-03-30T03:29:38.586Z,8.52
2023-03-30T03:32:05.263Z,8.57
2023-03-30T03:34:31.986Z,8.57
2023-03-30T03:36:59.204Z,8.62
2023-03-30T03:39:26.285Z,8.57
2023-03-30T03:41:54.160Z,8.44
2023-03-30T03:44:20.881Z,8.42
2023-03-30T03:46:47.841Z,8.44
2023-03-30T03:49:14.625Z,8.48
2023-03-30T03:51:42.008Z,8.49
2023-03-30T03:54:08.758Z,8.48
2023-03-30T03:56:35.865Z,8.52
2023-03-30T03:59:03.516Z,8.56
2023-03-30T04:01:31.880Z,8.52
2023-03-30T04:03:58.604Z,8.55
2023-03-30T04:06:26.083Z,8.50
2023-03-30T04:08:53.748Z,8.53
2023-03-30T04:11:21.323Z,8.60
2023-03-30T04:13:48.321Z,8.62
2023-03-30T04:16:15.533Z,8.51
2023-03-30T04:18:42.424Z,8.53
2023-03-30T04:21:13.008Z,8.57
2023-03-30T04:23:40.113Z,8.46
2023-03-30T04:26:08.035Z,8.47
2023-03-30T04:28:35.894Z,8.55
2023-03-30T04:31:05.118Z,8.46
2023-03-30T04:33:35.108Z,8.47
2023-03-30T04:36:02.192Z,8.37
2023-03-30T04:38:30.088Z,8.39
2023-03-30T04:40:56.939Z,8.37
2023-03-30T04:43:24.590Z,8.35
2023-03-30T04:45:56.401Z,8.47
2023-03-30T04:48:24.015Z,8.33
2023-03-30T04:50:51.947Z,8.35
2023-03-30T04:53:19.074Z,8.29
2023-03-30T04:55:50.664Z,8.33
2023-03-30T04:58:17.772Z,8.27
2023-03-30T05:00:44.584Z,8.29
2023-03-30T05:03:11.375Z,8.27
2023-03-30T05:05:38.376Z,8.29
2023-03-30T05:08:05.631Z,8.32
2023-03-30T05:10:32.432Z,8.37
2023-03-30T05:12:59.222Z,8.37
2023-03-30T05:15:26.096Z,8.59
2023-03-30T05:17:53.007Z,8.49
2023-03-30T05:20:20.141Z,8.38
2023-03-30T05:22:47.671Z,8.44
2023-03-30T05:25:14.582Z,8.42
2023-03-30T05:27:41.305Z,8.39
2023-03-30T05:30:08.504Z,8.38
2023-03-30T05:32:35.490Z,8.42
2023-03-30T05:35:02.440Z,8.48
2023-03-30T05:37:29.174Z,8.47
2023-03-30T05:39:56.290Z,8.52
2023-03-30T05:42:23.354Z,8.58
2023-03-30T05:44:50.169Z,8.51
2023-03-30T05:47:16.967Z,8.56
2023-03-30T05:49:44.270Z,8.61
2023-03-30T05:52:11.732Z,8.63
2023-03-30T05:54:38.548Z,8.62
2023-03-30T05:57:05.417Z,8.67
2023-03-30T05:59:33.082Z,8.70
2023-03-30T06:02:00.649Z,8.72
2023-03-30T06:04:27.713Z,8.79
2023-03-30T06:06:54.578Z,8.82
2023-03-30T06:09:21.659Z,8.76
2023-03-30T06:11:48.341Z,8.80
2023-03-30T06:14:15.693Z,8.89
2023-03-30T06:16:42.558Z,8.96
2023-03-30T06:19:09.316Z,9.01
2023-03-30T06:21:36.170Z,9.08
2023-03-30T06:24:03.243Z,9.08
2023-03-30T06:26:30.012Z,9.18
2023-03-30T06:28:56.879Z,9.47
2023-03-30T06:31:24.280Z,9.37
2023-03-30T06:33:51.326Z,9.27
2023-03-30T06:36:18.724Z,9.27
2023-03-30T06:38:45.624Z,9.31
2023-03-30T06:41:12.949Z,9.39
2023-03-30T06:43:40.293Z,9.37
2023-03-30T06:46:08.511Z,9.39
2023-03-30T06:48:35.671Z,9.44
2023-03-30T06:51:04.031Z,9.53
2023-03-30T06:53:31.491Z,9.51
2023-03-30T06:55:59.233Z,9.52
2023-03-30T06:58:27.605Z,9.56
2023-03-30T07:00:55.204Z,9.61
2023-03-30T07:03:22.588Z,9.68
2023-03-30T07:05:50.528Z,9.68
2023-03-30T07:08:19.068Z,9.74
2023-03-30T07:10:47.694Z,9.65
2023-03-30T07:13:16.590Z,9.70
2023-03-30T07:15:44.311Z,9.71
2023-03-30T07:18:11.221Z,9.70
2023-03-30T07:20:38.327Z,9.88
2023-03-30T07:23:05.301Z,9.79
2023-03-30T07:25:32.626Z,9.79
2023-03-30T07:27:59.457Z,9.77
2023-03-30T07:30:26.682Z,9.82
2023-03-30T07:32:55.546Z,9.89
2023-03-30T07:35:24.075Z,9.90
2023-03-30T07:37:51.701Z,9.85
2023-03-30T07:40:19.923Z,9.96
2023-03-30T07:42:48.031Z,10.10
2023-03-30T07:45:16.491Z,10.07
2023-03-30T07:47:43.675Z,10.14
2023-03-30T07:50:10.733Z,10.10
2023-03-30T07:52:38.049Z,10.19
2023-03-30T07:55:05.363Z,10.28
2023-03-30T07:57:32.305Z,10.23
2023-03-30T07:59:59.231Z,10.21
2023-03-30T08:02:27.327Z,10.20
2023-03-30T08:04:54.516Z,10.25
2023-03-30T08:07:21.278Z,10.34
2023-03-30T08:09:48.227Z,10.33
2023-03-30T08:12:15.089Z,10.42
2023-03-30T08:14:42.057Z,10.46
2023-03-30T08:17:09.089Z,10.45
2023-03-30T08:19:35.930Z,10.49
2023-03-30T08:22:03.348Z,10.51
2023-03-30T08:24:30.539Z,10.60
2023-03-30T08:26:57.314Z,10.69
2023-03-30T08:29:24.246Z,10.70
2023-03-30T08:31:52.227Z,10.79
2023-03-30T08:34:19.387Z,10.87
2023-03-30T08:36:46.278Z,10.98
2023-03-30T08:39:13.052Z,10.95
2023-03-30T08:42:04.968Z,10.95
2023-03-30T08:44:33.592Z,11.08
2023-03-30T08:47:03.645Z,11.36
2023-03-30T08:49:35.825Z,11.31
2023-03-30T08:52:04.658Z,11.25
2023-03-30T08:54:33.378Z,11.26
2023-03-30T08:57:13.849Z,11.20
2023-03-30T08:59:54.538Z,11.36
2023-03-30T09:02:27.282Z,11.46
2023-03-30T09:05:15.477Z,11.53
2023-03-30T09:07:56.387Z,11.56
2023-03-30T09:10:26.206Z,11.69
2023-03-30T09:12:59.081Z,11.84
2023-03-30T09:15:31.717Z,12.01
2023-03-30T09:18:05.170Z,12.42
2023-03-30T09:20:35.536Z,12.95
2023-03-30T09:23:03.937Z,13.70
2023-03-30T09:26:02.965Z,13.46
2023-03-30T09:28:48.331Z,13.21
2023-03-30T09:31:33.052Z,13.23
2023-03-30T09:34:23.171Z,13.16
2023-03-30T09:36:57.313Z,13.16
2023-03-30T09:39:27.314Z,12.91
2023-03-30T09:42:13.183Z,12.89
2023-03-30T09:44:43.073Z,12.84
2023-03-30T09:47:26.843Z,12.90
2023-03-30T09:50:02.377Z,13.07
2023-03-30T09:52:32.221Z,12.88
2023-03-30T09:55:26.233Z,12.70
2023-03-30T09:57:54.654Z,12.88
2023-03-30T10:00:31.427Z,12.78
2023-03-30T10:03:04.965Z,12.80
2023-03-30T10:05:34.610Z,12.88
2023-03-30T10:08:06.519Z,12.88
2023-03-30T10:10:38.479Z,13.07
2023-03-30T10:13:11.450Z,13.16
2023-03-30T10:15:40.549Z,13.34
2023-03-30T10:18:30.926Z,13.49
2023-03-30T10:21:05.412Z,13.78
2023-03-30T10:23:40.105Z,13.58
2023-03-30T10:26:19.296Z,13.79
2023-03-30T10:29:04.593Z,13.93
2023-03-30T10:31:35.082Z,14.30
2023-03-30T10:34:03.975Z,14.91
2023-03-30T10:36:38.404Z,14.71
2023-03-30T10:39:20.725Z,14.97
2023-03-30T10:41:48.655Z,14.71
2023-03-30T10:44:26.240Z,14.69
2023-03-30T10:47:11.679Z,14.82
2023-03-30T10:49:50.701Z,15.80
2023-03-30T10:52:59.146Z,17.00
2023-03-30T10:55:26.302Z,17.34
2023-03-30T10:58:01.083Z,16.94
2023-03-30T11:00:43.734Z,16.94
2023-03-30T11:03:17.920Z,17.43
2023-03-30T11:05:48.295Z,18.41
2023-03-30T11:08:44.081Z,17.52
2023-03-30T11:11:18.110Z,17.04
2023-03-30T11:13:55.244Z,17.34
2023-03-30T11:16:31.218Z,17.34
2023-03-30T11:19:14.517Z,17.37
2023-03-30T11:22:21.144Z,18.17
2023-03-30T11:24:50.779Z,18.13
2023-03-30T11:27:25.838Z,17.61
2023-03-30T11:30:21.568Z,17.54
2023-03-30T11:33:02.300Z,16.85
2023-03-30T11:35:32.699Z,17.01
2023-03-30T11:38:29.565Z,16.59
2023-03-30T11:41:01.626Z,16.29
2023-03-30T11:43:30.768Z,16.28
2023-03-30T11:46:08.108Z,16.41
2023-03-30T11:49:04.393Z,16.07
2023-03-30T11:51:37.162Z,15.78
2023-03-30T11:54:23.129Z,15.66
2023-03-30T11:57:07.823Z,15.28
2023-03-30T12:00:01.782Z,14.47
2023-03-30T12:02:28.565Z,14.07
2023-03-30T12:05:03.085Z,13.78
2023-03-30T12:07:50.062Z,13.65
2023-03-30T12:10:36.446Z,13.40
2023-03-30T12:13:03.554Z,13.36
2023-03-30T12:15:55.880Z,13.33
2023-03-30T12:18:44.485Z,13.39
2023-03-30T12:21:50.011Z,13.37
2023-03-30T12:24:36.237Z,13.43
2023-03-30T12:27:06.869Z,13.48
2023-03-30T12:32:29.328Z,13.35
2023-03-30T12:34:59.736Z,13.32
2023-03-30T12:37:34.736Z,13.34
2023-03-30T12:40:06.527Z,13.33
2023-03-30T12:42:34.633Z,13.26
2023-03-30T12:45:34.389Z,13.33
2023-03-30T12:48:02.919Z,13.50
2023-03-30T12:50:51.803Z,13.45
2023-03-30T12:54:04.489Z,13.40
2023-03-30T12:56:48.685Z,13.48
2023-03-30T12:59:31.784Z,13.47
2023-03-30T13:02:19.071Z,13.54
2023-03-30T13:04:48.909Z,13.67
2023-03-30T13:07:21.647Z,14.13
2023-03-30T13:09:52.429Z,14.42
2023-03-30T13:12:39.541Z,14.30
2023-03-30T13:15:32.334Z,14.18
2023-03-30T13:18:04.852Z,14.15
2023-03-30T13:20:56.334Z,14.05
2023-03-30T13:23:34.161Z,13.74
2023-03-30T13:26:34.318Z,13.79
2023-03-30T13:29:15.351Z,13.70
2023-03-30T13:31:42.037Z,13.63
2023-03-30T13:34:27.100Z,13.68
2023-03-30T13:37:05.913Z,13.86
2023-03-30T13:39:46.729Z,14.19
2023-03-30T13:42:27.072Z,14.51
2023-03-30T13:45:04.655Z,14.62
2023-03-30T13:47:57.489Z,14.49
2023-03-30T13:50:28.650Z,14.54
2023-03-30T13:52:59.106Z,14.54
2023-03-30T13:55:43.160Z,14.22
2023-03-30T13:58:15.560Z,13.55
2023-03-30T14:00:49.920Z,13.19
2023-03-30T14:03:28.952Z,12.87
2023-03-30T14:06:29.425Z,12.67
2023-03-30T14:09:11.121Z,12.74
2023-03-30T14:11:45.825Z,12.72
2023-03-30T14:14:28.030Z,12.96
2023-03-30T14:16:57.237Z,13.27
2023-03-30T14:19:25.690Z,13.38
2023-03-30T14:21:59.304Z,13.29
2023-03-30T14:24:34.278Z,13.21
2023-03-30T14:27:12.445Z,12.96
2023-03-30T14:29:48.226Z,12.97
2023-03-30T14:32:17.275Z,12.84
2023-03-30T14:34:52.556Z,12.99
2023-03-30T14:37:22.353Z,12.81
2023-03-30T14:39:54.766Z,12.81
2023-03-30T14:42:27.341Z,12.64
2023-03-30T14:44:56.884Z,12.50
2023-03-30T14:47:28.757Z,12.64
2023-03-30T14:50:01.293Z,12.50
2023-03-30T14:52:39.724Z,12.45
2023-03-30T14:55:16.630Z,12.35
2023-03-30T14:57:46.337Z,12.45
2023-03-30T15:00:20.447Z,12.53
2023-03-30T15:02:52.130Z,12.47
2023-03-30T15:05:19.685Z,12.46
2023-03-30T15:07:51.445Z,12.66
2023-03-30T15:10:46.191Z,13.08
2023-03-30T15:13:25.435Z,13.46
2023-03-30T15:15:54.429Z,13.94
2023-03-30T15:18:26.994Z,14.23
2023-03-30T15:20:56.404Z,14.54
2023-03-30T15:23:25.805Z,14.42
2023-03-30T15:25:56.476Z,14.67
2023-03-30T15:28:23.256Z,14.68
2023-03-30T15:30:53.137Z,14.87
2023-03-30T15:33:31.168Z,15.36
2023-03-30T15:36:05.622Z,15.43
2023-03-30T15:38:36.143Z,15.41
2023-03-30T15:41:03.727Z,15.87
2023-03-30T15:43:33.714Z,15.70
2023-03-30T15:46:08.107Z,15.99
2023-03-30T15:48:37.456Z,16.21
2023-03-30T15:51:10.356Z,15.82
2023-03-30T15:53:46.861Z,15.36
2023-03-30T15:56:27.891Z,15.77
2023-03-30T15:58:55.360Z,15.70
2023-03-30T16:01:23.385Z,15.51
2023-03-30T16:03:57.065Z,15.33
2023-03-30T16:06:24.248Z,15.44
2023-03-30T16:08:53.695Z,15.84
2023-03-30T16:11:21.934Z,15.97
2023-03-30T16:13:49.209Z,15.63
2023-03-30T16:16:18.595Z,15.48
2023-03-30T16:18:46.853Z,14.83
2023-03-30T16:21:15.693Z,14.24
2023-03-30T16:23:42.804Z,14.11
2023-03-30T16:26:12.350Z,13.97
2023-03-30T16:28:42.516Z,13.66
2023-03-30T16:31:18.786Z,13.64
2023-03-30T16:33:46.080Z,13.26
2023-03-30T16:36:18.168Z,13.32
2023-03-30T16:38:45.980Z,13.34
2023-03-30T16:41:21.944Z,13.56
2023-03-30T16:43:50.047Z,13.24
2023-03-30T16:46:23.900Z,13.18
2023-03-30T16:48:50.870Z,13.21
2023-03-30T16:51:18.191Z,13.17
2023-03-30T16:53:45.298Z,13.00
2023-03-30T16:56:17.591Z,12.95
2023-03-30T16:58:46.084Z,12.77
2023-03-30T17:01:15.850Z,12.65
2023-03-30T17:03:43.550Z,12.60
2023-03-30T17:06:11.539Z,12.61
2023-03-30T17:08:39.486Z,12.52
2023-03-30T17:11:07.946Z,12.23
2023-03-30T17:13:38.075Z,12.30
2023-03-30T17:16:12.010Z,12.11
2023-03-30T17:18:42.576Z,12.20
2023-03-30T17:21:16.528Z,12.15
2023-03-30T17:23:45.418Z,12.05
2023-03-30T17:26:12.893Z,11.85
2023-03-30T17:28:40.103Z,11.88
2023-03-30T17:31:14.821Z,11.77
2023-03-30T17:33:42.333Z,11.67
2023-03-30T17:36:28.873Z,11.58
2023-03-30T17:38:56.647Z,11.53
2023-03-30T17:41:23.492Z,11.44
2023-03-30T17:43:50.379Z,11.43
2023-03-30T17:46:19.327Z,11.41
2023-03-30T17:48:46.581Z,11.26
2023-03-30T17:51:13.357Z,11.27
2023-03-30T17:53:40.316Z,11.18
2023-03-30T17:56:07.458Z,11.20
2023-03-30T17:58:36.401Z,11.18
2023-03-30T18:01:08.739Z,11.12
2023-03-30T18:03:38.404Z,11.25
2023-03-30T18:06:05.878Z,11.30
2023-03-30T18:08:32.801Z,11.14
2023-03-30T18:11:00.879Z,11.54
2023-03-30T18:13:29.233Z,11.01
2023-03-30T18:15:58.811Z,10.94
2023-03-30T18:18:28.567Z,10.93
2023-03-30T18:20:57.724Z,10.97
2023-03-30T18:23:24.781Z,10.86
2023-03-30T18:25:52.030Z,10.79
2023-03-30T18:28:21.607Z,10.81
2023-03-30T18:30:49.103Z,10.79
2023-03-30T18:33:19.159Z,10.74
2023-03-30T18:35:49.275Z,10.71
2023-03-30T18:38:19.431Z,10.75
2023-03-30T18:40:53.520Z,10.70
2023-03-30T18:43:20.549Z,10.69
2023-03-30T18:45:49.500Z,10.62
2023-03-30T18:48:18.818Z,10.69
2023-03-30T18:50:46.494Z,10.67
2023-03-30T18:53:15.728Z,10.66
2023-03-30T18:56:00.999Z,10.62
2023-03-30T18:58:30.496Z,10.60
2023-03-30T19:00:57.459Z,10.65
2023-03-30T19:03:25.706Z,10.66
2023-03-30T19:06:00.500Z,10.59
2023-03-30T19:08:27.635Z,10.63
2023-03-30T19:10:57.470Z,10.54
2023-03-30T19:13:25.802Z,10.56
2023-03-30T19:15:53.005Z,10.51
2023-03-30T19:18:20.214Z,10.49
2023-03-30T19:20:50.119Z,10.50
2023-03-30T19:23:18.023Z,10.52
2023-03-30T19:25:45.732Z,10.48
2023-03-30T19:28:13.226Z,10.54
2023-03-30T19:30:40.471Z,10.50
2023-03-30T19:33:16.222Z,10.41
2023-03-30T19:35:44.355Z,10.45
2023-03-30T19:38:11.722Z,10.42
2023-03-30T19:40:40.049Z,10.41
2023-03-30T19:43:07.990Z,10.27
2023-03-30T19:45:35.134Z,10.33
2023-03-30T19:48:02.053Z,10.26
2023-03-30T19:50:30.301Z,10.26
2023-03-30T19:52:58.176Z,10.26
2023-03-30T19:55:25.004Z,10.12
2023-03-30T19:57:51.776Z,10.26
2023-03-30T20:00:19.736Z,10.26
2023-03-30T20:02:49.481Z,10.28
2023-03-30T20:05:17.490Z,10.27
2023-03-30T20:07:46.092Z,10.28
2023-03-30T20:10:16.660Z,10.28
2023-03-30T20:12:43.738Z,10.29
2023-03-30T20:15:11.532Z,10.36
2023-03-30T20:17:39.320Z,10.38
2023-03-30T20:20:09.405Z,10.36
2023-03-30T20:22:38.778Z,10.45
2023-03-30T20:25:08.086Z,10.42
2023-03-30T20:27:35.860Z,10.52
2023-03-30T20:30:04.632Z,10.53
2023-03-30T20:32:31.733Z,10.53
2023-03-30T20:34:58.689Z,10.58
2023-03-30T20:37:25.664Z,10.56
2023-03-30T20:39:52.536Z,10.59
2023-03-30T20:42:25.976Z,10.69
2023-03-30T20:44:53.468Z,10.71
2023-03-30T20:47:26.109Z,10.81
2023-03-30T20:49:55.807Z,10.80
2023-03-30T20:52:23.872Z,10.78
2023-03-30T20:54:52.450Z,10.71
2023-03-30T20:57:20.681Z,10.72
2023-03-30T20:59:48.395Z,10.69
2023-03-30T21:02:16.604Z,10.67
2023-03-30T21:04:44.304Z,10.68
2023-03-30T21:07:11.478Z,10.70
2023-03-30T21:09:39.112Z,10.67
2023-03-30T21:12:06.366Z,10.65
2023-03-30T21:14:33.070Z,10.75
2023-03-30T21:16:59.779Z,10.72
2023-03-30T21:19:26.494Z,10.68
2023-03-30T21:21:53.389Z,10.70
2023-03-30T21:24:20.497Z,10.72
2023-03-30T21:26:47.273Z,10.74
2023-03-30T21:29:14.215Z,10.74
2023-03-30T21:31:41.700Z,10.73
2023-03-30T21:34:10.164Z,10.73
2023-03-30T21:36:37.086Z,10.74
2023-03-30T21:39:04.113Z,10.77
2023-03-30T21:41:30.929Z,10.78
2023-03-30T21:43:57.816Z,10.77
2023-03-30T21:46:26.058Z,10.74
2023-03-30T21:48:54.445Z,10.74
2023-03-30T21:51:24.425Z,10.65
2023-03-30T21:53:52.616Z,10.69
2023-03-30T21:56:22.358Z,10.60
2023-03-30T21:58:49.588Z,10.55
2023-03-30T22:01:17.547Z,10.54
2023-03-30T22:03:45.825Z,10.49
2023-03-30T22:06:14.616Z,10.57
2023-03-30T22:08:41.974Z,10.56
2023-03-30T22:11:13.053Z,10.54
2023-03-30T22:13:39.914Z,10.54
2023-03-30T22:16:16.330Z,10.52
2023-03-30T22:18:44.338Z,10.52
2023-03-30T22:21:17.475Z,10.48
2023-03-30T22:23:45.193Z,10.49
2023-03-30T22:26:12.880Z,10.52
2023-03-30T22:28:40.328Z,10.54
2023-03-30T22:31:12.130Z,10.54
2023-03-30T22:33:38.894Z,10.54
2023-03-30T22:36:15.234Z,10.52
2023-03-30T22:38:42.480Z,10.51
2023-03-30T22:41:10.262Z,10.45
2023-03-30T22:43:37.597Z,10.42
2023-03-30T22:46:06.710Z,10.46
2023-03-30T22:48:34.161Z,10.35
2023-03-30T22:51:03.212Z,10.41
2023-03-30T22:53:31.824Z,10.41
2023-03-30T22:55:58.642Z,10.34
2023-03-30T22:58:25.467Z,10.42
2023-03-30T23:00:52.898Z,10.33
2023-03-30T23:03:19.808Z,10.35
2023-03-30T23:05:51.782Z,10.34
2023-03-30T23:08:18.799Z,10.34
2023-03-30T23:10:46.010Z,10.34
2023-03-30T23:13:13.899Z,10.42
2023-03-30T23:15:40.908Z,10.39
2023-03-30T23:18:07.771Z,10.43
2023-03-30T23:20:34.650Z,10.50
2023-03-30T23:23:01.630Z,10.54
2023-03-30T23:25:28.495Z,10.49
2023-03-30T23:27:56.706Z,10.51
2023-03-30T23:30:23.671Z,10.48
2023-03-30T23:32:50.975Z,10.49
2023-03-30T23:35:17.924Z,10.50
2023-03-30T23:37:45.490Z,10.51
2023-03-30T23:40:12.579Z,10.58
2023-03-30T23:42:39.394Z,10.72
2023-03-30T23:45:06.955Z,10.65
2023-03-30T23:47:34.091Z,10.58
2023-03-30T23:50:01.356Z,10.63
2023-03-30T23:52:28.079Z,10.62
2023-03-30T23:54:54.838Z,10.66
2023-03-30T23:57:21.794Z,10.59
2023-03-30T23:59:48.577Z,10.58
